Impacts TAF Board INFO
FOR SITUATIONAL AWARENESS. NOT TO BE USED FOR FLIGHT PLANNING PURPOSES.
IDs:

KMCB - McComb/Lewis Fld, MS, US

Issued at 0520 UTC 22 Jul 2018
Updated at 0824 UTC 22 Jul 2018
Potential Impact None Slight Moderate High
Time0753Z 22/09Z 22/10Z 22/11Z 22/12Z 22/13Z 22/14Z 22/15Z 22/16Z 22/17Z 22/18Z 22/19Z 22/20Z 22/21Z>>
Type OBS PRVL PRVL PRVL PRVL PRVL PRVL PRVL PRVL PRVL PRVL PRVL PRVL PRVL
VIS 10 >6 >6 >6 >6 >6 >6 >6 >6 >6 >6 >6 >6 >6
CIG -- -- -- -- -- -- -- -- -- -- -- -- -- --
Cover CLR SKC SKC SKC SKC FEW FEW FEW FEW FEW FEW FEW FEW FEW
FltCat VFR VFR VFR VFR VFR VFR VFR VFR VFR VFR VFR VFR VFR VFR
WX -- -- -- -- -- -- -- -- -- -- -- -- -- --
WDir 260 240 240 240 240 280 280 280 280 280 280 280 280 280
WSpd 6 4 4 4 4 9 9 9 9 9 9 9 9 9
WGst -- -- -- -- -- -- -- -- -- -- -- -- -- --

Raw TAF
KMCB 220520Z 2206/2306 24004KT P6SM SKC
  FM221300 28009KT P6SM FEW250
  FM230000 31006KT P6SM FEW250
  FM230300 00000KT P6SM SCT250


Raw METAR
KMCB 220753Z AUTO 26006KT 10SM CLR 26/24 A2989 RMK AO2 SLP115 T02610239 TSNO
KMCB 220653Z AUTO 25006KT 10SM CLR 27/24 A2990 RMK AO2 SLP118 T02670239 TSNO
KMCB 220553Z AUTO 25004KT 10SM CLR 27/23 A2991 RMK AO2 SLP121 T02670228 10333 20261 403560239 50000 TSNO

METAR Board
Radar Display
Forecast Discussion

FOR SITUATIONAL AWARENESS. NOT TO BE USED FOR FLIGHT PLANNING PURPOSES.